Time;durP1;ratioP1;P1;durP2;ratioP2;P2;SDS_P1;SDS_P2;PMS_P1;PMS_P2;Temp;Humidity;BMP_temperature;BMP_pressure;BME280_temperature;BME280_humidity;BME280_pressure;Samples;Min_cycle;Max_cycle;Signal;HPM_P1;HPM_P2
2023/11/05 00:00:50;;;;;;;1.00;0.60;;;;;;;9.60;97.22;96848.58;105193;1267;61128;-24
2023/11/05 00:03:17;;;;;;;1.80;0.70;;;;;;;9.98;96.53;96850.89;105190;1264;72854;-24
2023/11/05 00:05:44;;;;;;;1.00;0.60;;;;;;;10.41;93.05;96853.48;105067;1264;74309;-24
2023/11/05 00:08:11;;;;;;;1.70;0.80;;;;;;;10.39;92.26;96858.88;105203;1264;72741;-23
2023/11/05 00:10:39;;;;;;;1.50;0.90;;;;;;;10.21;92.59;96862.81;104959;1263;61160;-23
2023/11/05 00:13:06;;;;;;;1.90;0.80;;;;;;;9.98;93.56;96870.50;104927;1270;61153;-24
2023/11/05 00:15:33;;;;;;;2.30;0.60;;;;;;;9.77;95.74;96882.52;105108;1265;72732;-23
2023/11/05 00:17:59;;;;;;;2.80;0.50;;;;;;;10.13;95.20;96879.94;104909;1264;74265;-23
2023/11/05 00:20:26;;;;;;;0.50;0.40;;;;;;;10.57;92.18;96877.13;105223;1264;72712;-24
2023/11/05 00:22:53;;;;;;;2.00;0.60;;;;;;;10.53;90.93;96881.78;105014;1264;61074;-24
2023/11/05 00:25:20;;;;;;;0.70;0.60;;;;;;;10.27;91.82;96882.89;104970;1267;61127;-23
2023/11/05 00:27:47;;;;;;;1.20;0.60;;;;;;;10.02;93.29;96879.96;105091;1269;72897;-24
2023/11/05 00:30:14;;;;;;;0.90;0.60;;;;;;;9.79;94.89;96883.72;105213;1266;74397;-24
2023/11/05 00:32:41;;;;;;;3.50;0.70;;;;;;;10.05;94.97;96882.98;104865;1270;72785;-23
2023/11/05 00:35:08;;;;;;;2.00;0.80;;;;;;;10.37;92.64;96883.02;105098;1264;61087;-24
2023/11/05 00:37:35;;;;;;;2.00;0.80;;;;;;;10.34;92.03;96880.83;105118;1270;61409;-24
2023/11/05 00:40:03;;;;;;;1.00;0.70;;;;;;;10.16;92.56;96882.15;105234;1266;73080;-24
2023/11/05 00:42:32;;;;;;;1.50;1.00;;;;;;;9.90;93.46;96879.48;104874;1270;73080;-24
2023/11/05 00:44:59;;;;;;;1.50;0.60;;;;;;;9.66;95.40;96886.13;105058;1264;72925;-24
2023/11/05 00:47:26;;;;;;;0.90;0.60;;;;;;;10.00;94.66;96884.61;105000;1266;61155;-25
2023/11/05 00:49:53;;;;;;;1.60;0.50;;;;;;;10.39;91.87;96887.13;104980;1265;61074;-24
2023/11/05 00:52:20;;;;;;;1.80;0.70;;;;;;;10.42;91.05;96889.10;104914;1264;73019;-24
2023/11/05 00:54:47;;;;;;;2.30;0.70;;;;;;;10.19;91.72;96891.48;104907;1264;74401;-24
2023/11/05 00:57:15;;;;;;;1.10;0.80;;;;;;;9.92;93.46;96890.55;104953;1267;72338;-24
2023/11/05 00:59:41;;;;;;;2.00;0.60;;;;;;;9.64;95.30;96887.98;105158;1264;61022;-24
2023/11/05 01:02:09;;;;;;;1.00;0.60;;;;;;;9.52;96.84;96892.17;105039;1263;61224;-24
2023/11/05 01:04:36;;;;;;;1.40;0.70;;;;;;;10.02;95.12;96897.33;105261;1266;73025;-24
2023/11/05 01:07:03;;;;;;;0.80;0.70;;;;;;;10.26;92.91;96894.64;105200;1264;74369;-24
2023/11/05 01:09:31;;;;;;;2.60;0.90;;;;;;;10.16;92.72;96895.47;105126;1266;72522;-24
2023/11/05 01:11:58;;;;;;;1.30;0.80;;;;;;;9.93;93.81;96898.54;105113;1264;61099;-24
2023/11/05 01:14:25;;;;;;;1.10;0.90;;;;;;;9.67;95.70;96909.45;105177;1270;61192;-24
2023/11/05 01:16:51;;;;;;;1.70;0.60;;;;;;;9.47;97.35;96917.37;105183;1266;73480;-24
2023/11/05 01:19:18;;;;;;;1.00;0.60;;;;;;;9.87;96.25;96920.06;105096;1267;74431;-24
2023/11/05 01:21:46;;;;;;;0.70;0.50;;;;;;;10.26;93.17;96922.77;104987;1270;72690;-24
2023/11/05 01:24:13;;;;;;;4.70;1.10;;;;;;;10.24;92.51;96926.33;105167;1265;61074;-24
2023/11/05 01:26:40;;;;;;;1.40;0.90;;;;;;;10.03;93.06;96930.39;105221;1268;61108;-23
2023/11/05 01:29:07;;;;;;;2.00;0.90;;;;;;;9.70;94.97;96930.56;105188;1264;73014;-24
2023/11/05 01:31:34;;;;;;;1.20;0.60;;;;;;;9.49;96.51;96932.56;105204;1266;74763;-24
2023/11/05 01:34:01;;;;;;;1.30;0.70;;;;;;;9.78;95.54;96935.91;105208;1264;71959;-24
2023/11/05 01:36:27;;;;;;;1.70;0.90;;;;;;;10.06;93.00;96940.48;105215;1266;61055;-24
2023/11/05 01:38:54;;;;;;;1.50;0.70;;;;;;;9.97;92.58;96941.26;105200;1266;61106;-24
2023/11/05 01:41:22;;;;;;;2.50;1.10;;;;;;;9.69;93.77;96940.92;104822;1264;73111;-24
2023/11/05 01:43:49;;;;;;;2.00;1.00;;;;;;;9.38;95.56;96953.33;105020;1264;74254;-24
2023/11/05 01:46:15;;;;;;;1.30;0.60;;;;;;;9.10;97.50;96958.11;105095;1266;71674;-24
2023/11/05 01:48:42;;;;;;;1.30;0.80;;;;;;;9.38;97.04;96962.32;105011;1264;61081;-24
2023/11/05 01:51:13;;;;;;;2.40;0.90;;;;;;;9.72;94.33;96962.45;104865;1266;61528;-24
2023/11/05 01:53:41;;;;;;;2.20;0.90;;;;;;;9.62;93.53;96969.73;105012;1268;73050;-24
2023/11/05 01:56:08;;;;;;;3.60;0.90;;;;;;;9.40;94.23;96976.66;104841;1267;74296;-26
2023/11/05 01:58:37;;;;;;;2.70;1.20;;;;;;;9.12;95.43;96987.43;105803;1257;72606;-24
2023/11/05 02:01:04;;;;;;;1.80;0.60;;;;;;;8.90;96.99;96994.02;105924;1257;61181;-24
2023/11/05 02:03:31;;;;;;;2.20;0.80;;;;;;;9.22;96.21;96988.16;105952;1266;61173;-24
2023/11/05 02:05:58;;;;;;;1.40;0.60;;;;;;;9.62;93.51;96988.08;105997;1251;72882;-24
2023/11/05 02:08:25;;;;;;;1.70;0.90;;;;;;;9.58;93.05;96983.42;105745;1254;74293;-24
2023/11/05 02:10:52;;;;;;;2.60;0.90;;;;;;;9.36;93.29;96990.13;105928;1256;72605;-24
2023/11/05 02:13:18;;;;;;;1.20;0.80;;;;;;;9.10;94.63;96992.38;105858;1254;61067;-24
2023/11/05 02:15:46;;;;;;;2.40;0.70;;;;;;;8.87;95.61;96999.69;105727;1259;61237;-24
2023/11/05 02:18:14;;;;;;;2.60;0.80;;;;;;;9.14;95.45;96996.88;105975;1255;73114;-24
2023/11/05 02:20:41;;;;;;;1.80;1.00;;;;;;;9.59;93.13;96986.60;105984;1251;74832;-24
2023/11/05 02:23:15;;;;;;;2.90;1.10;;;;;;;9.60;92.18;96978.15;105969;1257;72648;-24
2023/11/05 02:25:42;;;;;;;2.20;0.90;;;;;;;9.36;92.22;96977.92;105747;1268;61238;-24
2023/11/05 02:28:09;;;;;;;3.20;0.90;;;;;;;9.09;92.65;96974.83;105986;1256;61170;-24
2023/11/05 02:30:36;;;;;;;1.10;0.70;;;;;;;8.82;93.76;96979.23;105859;1260;73407;-24
2023/11/05 02:33:03;;;;;;;0.80;0.60;;;;;;;9.08;93.84;96978.42;105779;1257;74283;-24
2023/11/05 02:35:30;;;;;;;1.60;0.80;;;;;;;9.46;92.14;96970.05;105865;1256;73163;-24
2023/11/05 02:37:57;;;;;;;1.50;0.80;;;;;;;9.44;91.35;96979.52;105728;1257;61127;-24
2023/11/05 02:40:24;;;;;;;2.20;1.10;;;;;;;9.19;91.70;96987.03;105778;1256;61121;-24
2023/11/05 02:42:51;;;;;;;5.10;1.10;;;;;;;8.92;92.29;96994.83;105868;1257;73821;-24
2023/11/05 02:45:19;;;;;;;1.60;1.00;;;;;;;8.63;93.23;97001.27;105777;1257;74908;-24
2023/11/05 02:47:46;;;;;;;3.30;0.60;;;;;;;8.41;94.73;97007.75;105530;1269;72536;-24
2023/11/05 02:50:14;;;;;;;1.30;0.90;;;;;;;8.73;95.67;97013.66;105658;1257;61113;-24
2023/11/05 02:52:41;;;;;;;4.10;2.00;;;;;;;9.06;94.15;97013.71;105808;1257;61098;-25
2023/11/05 02:55:09;;;;;;;5.90;2.40;;;;;;;9.02;94.40;97021.09;105801;1251;73895;-25
2023/11/05 02:57:36;;;;;;;3.70;1.90;;;;;;;8.82;94.67;97023.34;105759;1259;73170;-24
2023/11/05 03:00:04;;;;;;;3.70;1.50;;;;;;;8.59;95.59;97025.75;105813;1257;71168;-25
2023/11/05 03:02:33;;;;;;;1.70;0.90;;;;;;;8.45;96.64;97033.99;105667;1259;61796;-25
2023/11/05 03:05:00;;;;;;;2.90;1.10;;;;;;;8.71;95.71;97042.64;105756;1257;61144;-25
2023/11/05 03:07:27;;;;;;;3.40;1.80;;;;;;;8.87;94.80;97048.25;105969;1256;72779;-24
2023/11/05 03:09:55;;;;;;;2.10;1.30;;;;;;;8.72;95.80;97058.67;105907;1257;74300;-25
2023/11/05 03:12:23;;;;;;;3.00;1.40;;;;;;;8.62;94.60;97059.39;105903;1257;72560;-25
2023/11/05 03:14:50;;;;;;;3.40;1.10;;;;;;;8.32;94.97;97060.05;105905;1257;61175;-25
2023/11/05 03:17:17;;;;;;;0.80;0.60;;;;;;;7.98;97.80;97060.70;105835;1266;61204;-24
2023/11/05 03:19:44;;;;;;;2.50;1.00;;;;;;;8.34;97.33;97060.20;105950;1256;74263;-25
2023/11/05 03:22:12;;;;;;;5.70;1.40;;;;;;;8.73;94.77;97048.17;105974;1257;74289;-25
2023/11/05 03:24:40;;;;;;;2.30;1.30;;;;;;;8.65;94.65;97046.61;105937;1256;72588;-25
2023/11/05 03:27:07;;;;;;;3.30;1.60;;;;;;;8.41;96.09;97051.30;105710;1255;61121;-24
2023/11/05 03:29:35;;;;;;;6.00;2.40;;;;;;;8.13;97.55;97051.90;105747;1257;61124;-24
2023/11/05 03:32:03;;;;;;;4.00;1.30;;;;;;;7.96;98.83;97051.11;105525;1258;74610;-25
2023/11/05 03:34:30;;;;;;;6.20;2.30;;;;;;;8.22;98.77;97053.98;105628;1251;74413;-25
2023/11/05 03:36:57;;;;;;;5.40;2.70;;;;;;;8.48;96.47;97047.98;105705;1257;72516;-24
2023/11/05 03:39:24;;;;;;;5.40;2.60;;;;;;;8.42;96.14;97043.95;105886;1254;61153;-24
2023/11/05 03:41:51;;;;;;;2.90;1.70;;;;;;;8.24;96.79;97047.41;105858;1256;61105;-24
2023/11/05 03:44:18;;;;;;;3.20;1.50;;;;;;;8.08;96.72;97047.80;105917;1256;73863;-24
2023/11/05 03:46:45;;;;;;;4.00;1.50;;;;;;;7.86;97.49;97041.50;105935;1256;74328;-24
2023/11/05 03:49:12;;;;;;;2.00;1.40;;;;;;;8.35;96.80;97040.50;105958;1251;72624;-24
2023/11/05 03:51:39;;;;;;;2.70;1.30;;;;;;;8.85;93.21;97042.58;105949;1251;61511;-24
2023/11/05 03:54:06;;;;;;;3.00;1.20;;;;;;;8.77;91.05;97040.19;105932;1251;61102;-24
2023/11/05 03:56:33;;;;;;;1.40;1.00;;;;;;;8.45;90.63;97044.54;105981;1255;73750;-24
2023/11/05 03:59:00;;;;;;;1.80;1.20;;;;;;;8.08;91.86;97051.59;105936;1257;74358;-24
2023/11/05 04:01:27;;;;;;;2.70;1.40;;;;;;;7.73;93.64;97054.92;105757;1251;72621;-24
2023/11/05 04:03:54;;;;;;;1.30;1.00;;;;;;;7.78;96.21;97060.19;105874;1256;61055;-24
2023/11/05 04:06:21;;;;;;;5.00;1.90;;;;;;;8.08;96.16;97067.83;105717;1257;61103;-24
2023/11/05 04:08:48;;;;;;;3.30;1.90;;;;;;;8.09;96.40;97070.73;105660;1251;73690;-24
2023/11/05 04:11:15;;;;;;;3.00;1.30;;;;;;;7.91;97.07;97067.47;105954;1255;74300;-24
2023/11/05 04:13:45;;;;;;;1.80;1.20;;;;;;;7.80;97.39;97068.26;105680;1251;72601;-24
2023/11/05 04:16:12;;;;;;;3.00;1.10;;;;;;;7.82;98.10;97074.45;105749;1254;62084;-24
2023/11/05 04:18:41;;;;;;;2.30;1.30;;;;;;;8.23;95.79;97074.22;105501;1257;61153;-24
2023/11/05 04:21:08;;;;;;;1.30;1.10;;;;;;;8.29;94.31;97070.52;105797;1256;73820;-24
2023/11/05 04:23:34;;;;;;;1.20;1.00;;;;;;;8.04;95.68;97069.21;105675;1256;74067;-24
2023/11/05 04:26:03;;;;;;;1.20;0.90;;;;;;;7.81;97.36;97063.30;105659;1256;72730;-24
2023/11/05 04:28:31;;;;;;;5.20;1.70;;;;;;;7.98;97.91;97069.04;105675;1251;61102;-24
2023/11/05 04:30:58;;;;;;;3.80;1.50;;;;;;;8.22;96.80;97072.98;105504;1257;61070;-24
2023/11/05 04:33:25;;;;;;;1.50;1.10;;;;;;;8.14;96.92;97073.91;105899;1251;73748;-24
2023/11/05 04:35:53;;;;;;;2.70;1.50;;;;;;;8.07;97.09;97069.29;105866;1251;74384;-24
2023/11/05 04:38:19;;;;;;;2.20;1.20;;;;;;;7.90;97.56;97073.32;105927;1251;73159;-25
2023/11/05 04:40:46;;;;;;;2.00;0.80;;;;;;;7.94;97.87;97079.13;105595;1254;61958;-24
2023/11/05 04:43:13;;;;;;;2.20;1.00;;;;;;;8.41;95.52;97076.52;105879;1256;61170;-24
2023/11/05 04:45:40;;;;;;;1.50;1.10;;;;;;;8.50;92.79;97073.18;105963;1257;74340;-24
2023/11/05 04:48:07;;;;;;;1.90;1.50;;;;;;;8.26;91.86;97067.91;105859;1256;74415;-24
2023/11/05 04:50:34;;;;;;;2.70;1.70;;;;;;;7.91;91.88;97072.86;105772;1255;72454;-24
2023/11/05 04:53:01;;;;;;;2.10;1.10;;;;;;;7.55;93.02;97078.83;105956;1251;61052;-24
2023/11/05 04:55:29;;;;;;;2.40;1.50;;;;;;;7.52;94.74;97084.96;105715;1256;61167;-24
2023/11/05 04:57:58;;;;;;;3.10;1.50;;;;;;;7.91;93.58;97083.69;105781;1257;71435;-24
2023/11/05 05:00:25;;;;;;;2.50;1.50;;;;;;;7.97;92.56;97085.16;105812;1257;74335;-24
2023/11/05 05:02:51;;;;;;;2.80;1.60;;;;;;;7.73;94.52;97097.08;105911;1251;72709;-24
2023/11/05 05:05:18;;;;;;;2.10;1.20;;;;;;;7.48;97.33;97104.08;105888;1257;61191;-24
2023/11/05 05:07:45;;;;;;;0.90;0.70;;;;;;;7.51;99.49;97110.34;105554;1257;61109;-24
2023/11/05 05:10:12;;;;;;;2.30;1.20;;;;;;;7.87;98.03;97115.03;105923;1251;74334;-24
2023/11/05 05:12:39;;;;;;;1.10;0.90;;;;;;;7.95;97.17;97113.61;105931;1257;74412;-24
2023/11/05 05:15:07;;;;;;;1.30;0.90;;;;;;;7.83;97.13;97115.65;105931;1255;72343;-24
2023/11/05 05:17:34;;;;;;;0.90;0.60;;;;;;;7.63;97.82;97111.70;105711;1254;61778;-23
2023/11/05 05:20:04;;;;;;;1.40;0.80;;;;;;;7.88;96.71;97109.03;105945;1252;61119;-24
2023/11/05 05:22:31;;;;;;;3.70;0.90;;;;;;;8.10;95.28;97107.20;105635;1254;73810;-24
2023/11/05 05:24:58;;;;;;;1.30;1.00;;;;;;;8.00;95.79;97105.10;105955;1251;74319;-24
2023/11/05 05:27:25;;;;;;;1.50;1.10;;;;;;;7.74;97.69;97111.34;105911;1255;73102;-24
2023/11/05 05:29:52;;;;;;;1.00;0.90;;;;;;;7.61;99.96;97121.54;105831;1252;61766;-23
2023/11/05 05:32:19;;;;;;;1.10;0.80;;;;;;;8.00;99.08;97120.17;105841;1257;61073;-23
2023/11/05 05:34:46;;;;;;;1.30;0.50;;;;;;;8.14;97.16;97121.41;105944;1257;73845;-23
2023/11/05 05:37:15;;;;;;;4.00;1.30;;;;;;;8.03;97.55;97128.30;105984;1255;74040;-24
2023/11/05 05:39:42;;;;;;;1.80;0.90;;;;;;;7.87;98.32;97132.30;105980;1251;72511;-23
2023/11/05 05:42:09;;;;;;;0.90;0.60;;;;;;;8.00;98.75;97136.20;105929;1254;61150;-23
2023/11/05 05:44:36;;;;;;;2.90;1.80;;;;;;;8.31;97.17;97144.33;105975;1251;61137;-24
2023/11/05 05:47:03;;;;;;;4.60;2.40;;;;;;;8.32;96.84;97147.54;105604;1259;73902;-24
2023/11/05 05:49:30;;;;;;;4.20;2.30;;;;;;;8.05;98.42;97153.71;105584;1251;74121;-26
2023/11/05 05:51:58;;;;;;;6.50;2.20;;;;;;;7.85;99.85;97162.27;105859;1255;72462;-23
2023/11/05 05:54:25;;;;;;;2.60;1.20;;;;;;;7.94;100.00;97164.75;105887;1251;61082;-25
2023/11/05 05:56:52;;;;;;;1.70;1.20;;;;;;;8.43;98.54;97160.09;105775;1257;61185;-26
2023/11/05 05:59:19;;;;;;;1.90;1.30;;;;;;;8.53;97.02;97162.16;105947;1256;73715;-24
2023/11/05 06:01:46;;;;;;;3.30;1.80;;;;;;;8.41;97.82;97159.19;105981;1258;74068;-24
2023/11/05 06:04:13;;;;;;;2.70;1.20;;;;;;;8.26;99.27;97156.40;105890;1254;72566;-24
2023/11/05 06:06:40;;;;;;;1.70;0.90;;;;;;;8.52;98.53;97152.36;105912;1256;61157;-24
2023/11/05 06:09:12;;;;;;;3.00;1.70;;;;;;;8.83;95.82;97150.98;105969;1256;61156;-24
2023/11/05 06:11:39;;;;;;;2.10;1.10;;;;;;;8.89;95.15;97146.73;105962;1251;73804;-24
2023/11/05 06:14:06;;;;;;;2.60;1.70;;;;;;;8.69;96.62;97143.53;105543;1257;74334;-24
2023/11/05 06:16:33;;;;;;;3.70;1.90;;;;;;;8.58;97.41;97141.38;106014;1251;72425;-24
2023/11/05 06:19:00;;;;;;;1.70;1.40;;;;;;;8.75;97.31;97134.29;105745;1251;61078;-24
2023/11/05 06:21:26;;;;;;;4.20;2.20;;;;;;;9.06;95.14;97134.05;105885;1251;61144;-24
2023/11/05 06:23:53;;;;;;;2.00;1.70;;;;;;;9.07;95.06;97131.33;105865;1251;73639;-24
2023/11/05 06:26:20;;;;;;;3.20;2.30;;;;;;;8.81;96.33;97130.86;105935;1251;74671;-24
2023/11/05 06:28:47;;;;;;;4.30;2.20;;;;;;;8.68;98.14;97135.67;105971;1256;72516;-24
2023/11/05 06:31:14;;;;;;;3.40;1.90;;;;;;;8.92;97.79;97140.30;105940;1257;61038;-24
2023/11/05 06:33:42;;;;;;;5.00;2.70;;;;;;;9.20;96.36;97139.48;105882;1256;61194;-24
2023/11/05 06:36:09;;;;;;;3.50;2.50;;;;;;;9.09;96.75;97139.56;105813;1251;73816;-24
2023/11/05 06:38:36;;;;;;;4.90;2.20;;;;;;;9.07;96.98;97140.86;105966;1251;74374;-25
2023/11/05 06:41:03;;;;;;;6.80;2.00;;;;;;;9.24;97.30;97143.52;105667;1258;72597;-25
2023/11/05 06:43:29;;;;;;;5.10;3.00;;;;;;;9.56;95.43;97139.45;105976;1257;61000;-25
2023/11/05 06:45:56;;;;;;;5.80;3.30;;;;;;;9.64;95.05;97132.27;105973;1255;61180;-25
2023/11/05 06:48:23;;;;;;;4.00;3.10;;;;;;;9.63;95.28;97127.65;105953;1251;73678;-25
2023/11/05 06:50:51;;;;;;;3.60;2.90;;;;;;;9.49;96.06;97133.60;105923;1251;72535;-27
2023/11/05 06:53:18;;;;;;;3.50;2.40;;;;;;;9.81;95.67;97130.52;105797;1251;72481;-24
2023/11/05 06:55:45;;;;;;;3.10;2.60;;;;;;;10.24;92.60;97124.02;105889;1251;61172;-25
2023/11/05 06:58:16;;;;;;;5.50;3.20;;;;;;;10.30;91.51;97124.20;105955;1256;61144;-25
2023/11/05 07:00:44;;;;;;;4.00;2.70;;;;;;;10.06;92.79;97124.61;105905;1251;73603;-26
2023/11/05 07:03:11;;;;;;;9.60;4.40;;;;;;;9.89;94.88;97127.60;105885;1256;74145;-26
2023/11/05 07:05:38;;;;;;;5.40;3.30;;;;;;;9.87;95.79;97128.84;105716;1253;73235;-26
2023/11/05 07:08:05;;;;;;;5.80;3.00;;;;;;;10.10;95.43;97129.70;105736;1253;61047;-26
2023/11/05 07:10:32;;;;;;;6.90;3.80;;;;;;;10.65;92.64;97129.52;105875;1251;61153;-26
2023/11/05 07:12:59;;;;;;;4.90;3.60;;;;;;;10.87;90.87;97123.24;105907;1251;73815;-26
2023/11/05 07:15:26;;;;;;;6.40;4.40;;;;;;;10.88;90.76;97120.23;105971;1251;74016;-26
2023/11/05 07:17:54;;;;;;;6.20;4.20;;;;;;;10.66;91.79;97116.13;105963;1251;72709;-26
2023/11/05 07:20:21;;;;;;;5.10;3.70;;;;;;;10.72;92.35;97114.04;105931;1251;61059;-26
2023/11/05 07:22:48;;;;;;;7.60;4.90;;;;;;;10.71;92.25;97113.77;105951;1257;61100;-26
2023/11/05 07:25:15;;;;;;;7.90;3.50;;;;;;;10.78;92.02;97117.32;105939;1251;73870;-26
2023/11/05 07:27:42;;;;;;;6.70;3.30;;;;;;;11.00;90.46;97119.57;106015;1251;73295;-26
2023/11/05 07:30:11;;;;;;;5.10;3.30;;;;;;;11.51;89.87;97124.35;105823;1251;72983;-26
2023/11/05 07:32:38;;;;;;;4.30;3.30;;;;;;;11.58;88.83;97123.73;105673;1251;60984;-26
2023/11/05 07:35:05;;;;;;;3.90;3.20;;;;;;;11.47;88.39;97126.77;105949;1255;61170;-26
2023/11/05 07:37:32;;;;;;;7.30;3.70;;;;;;;11.41;88.49;97124.11;105977;1251;74223;-26
2023/11/05 07:39:59;;;;;;;8.20;3.70;;;;;;;11.43;88.01;97120.75;106002;1257;74336;-26
2023/11/05 07:42:26;;;;;;;3.30;2.30;;;;;;;11.38;88.35;97126.23;105746;1251;72615;-26
2023/11/05 07:44:53;;;;;;;3.80;2.70;;;;;;;11.64;87.01;97124.89;105823;1257;61133;-26
2023/11/05 07:47:20;;;;;;;5.60;3.70;;;;;;;11.97;84.97;97128.40;105843;1256;61185;-26
2023/11/05 07:49:48;;;;;;;6.10;3.10;;;;;;;12.01;85.16;97130.05;105946;1251;73859;-26
2023/11/05 07:52:15;;;;;;;3.80;2.30;;;;;;;12.04;84.10;97129.92;105875;1257;73231;-27
2023/11/05 07:54:42;;;;;;;5.90;3.50;;;;;;;12.08;85.80;97133.60;105980;1251;72544;-27
2023/11/05 07:57:10;;;;;;;7.80;3.70;;;;;;;11.91;85.23;97134.16;105908;1251;61073;-26
2023/11/05 07:59:37;;;;;;;6.20;3.70;;;;;;;11.98;85.03;97131.42;105884;1257;61152;-26
2023/11/05 08:02:03;;;;;;;6.40;3.50;;;;;;;12.22;86.34;97133.24;105876;1256;73972;-27
2023/11/05 08:04:30;;;;;;;4.50;2.60;;;;;;;12.46;83.62;97131.23;105561;1259;75626;-26
2023/11/05 08:06:57;;;;;;;5.10;3.40;;;;;;;12.48;82.05;97126.83;105804;1252;72597;-26
2023/11/05 08:09:24;;;;;;;7.30;3.40;;;;;;;12.54;84.56;97120.96;105845;1251;61095;-26
2023/11/05 08:11:53;;;;;;;5.70;3.40;;;;;;;12.58;82.50;97111.64;105930;1256;61208;-26
2023/11/05 08:14:20;;;;;;;5.10;3.20;;;;;;;12.60;84.96;97111.42;105967;1251;73900;-27
2023/11/05 08:16:47;;;;;;;5.10;3.00;;;;;;;12.73;83.34;97102.80;105749;1259;74379;-28
2023/11/05 08:19:13;;;;;;;4.10;3.20;;;;;;;12.92;83.61;97100.43;105830;1254;72639;-26
2023/11/05 08:21:40;;;;;;;5.40;2.70;;;;;;;13.08;82.23;97099.23;105879;1257;61181;-27
2023/11/05 08:24:07;;;;;;;4.80;3.70;;;;;;;13.10;81.00;97103.02;105962;1256;61048;-27
2023/11/05 08:26:34;;;;;;;3.10;2.80;;;;;;;13.12;80.31;97099.42;105964;1251;73642;-27
2023/11/05 08:29:02;;;;;;;3.90;3.10;;;;;;;13.13;79.24;97094.51;105886;1256;74044;-27
2023/11/05 08:31:29;;;;;;;3.30;2.80;;;;;;;13.09;78.19;97088.50;105726;1251;72402;-27
2023/11/05 08:33:56;;;;;;;5.70;3.60;;;;;;;13.06;79.60;97086.38;105830;1251;61046;-27
2023/11/05 08:36:24;;;;;;;7.90;3.40;;;;;;;13.21;81.00;97091.55;105701;1257;61317;-27
2023/11/05 08:38:52;;;;;;;5.60;3.50;;;;;;;13.31;78.88;97087.16;105911;1251;73753;-27
2023/11/05 08:41:19;;;;;;;4.10;2.50;;;;;;;13.22;78.80;97090.34;105933;1251;74204;-27
2023/11/05 08:43:46;;;;;;;4.40;2.60;;;;;;;13.22;78.45;97098.20;105944;1256;72532;-27
2023/11/05 08:46:13;;;;;;;7.20;2.90;;;;;;;13.26;78.57;97099.11;105791;1251;61054;-27
2023/11/05 08:48:40;;;;;;;8.10;3.30;;;;;;;13.29;79.11;97094.98;105847;1256;61100;-27
2023/11/05 08:51:07;;;;;;;9.80;3.00;;;;;;;13.27;78.42;97087.56;105903;1251;73889;-26
2023/11/05 08:53:34;;;;;;;9.50;3.60;;;;;;;13.25;78.03;97082.34;105906;1251;74201;-26
2023/11/05 08:56:01;;;;;;;5.30;3.30;;;;;;;13.29;78.10;97079.55;105852;1251;72587;-26
2023/11/05 08:58:29;;;;;;;5.10;3.20;;;;;;;13.23;77.84;97079.40;105837;1251;60972;-26
2023/11/05 09:00:56;;;;;;;4.20;3.00;;;;;;;13.41;78.84;97085.27;105919;1251;61160;-26
2023/11/05 09:03:23;;;;;;;3.80;3.30;;;;;;;13.51;76.01;97081.41;106014;1251;73910;-27
2023/11/05 09:05:50;;;;;;;7.90;3.30;;;;;;;13.46;77.20;97082.88;105933;1256;74288;-27
2023/11/05 09:08:18;;;;;;;5.80;3.10;;;;;;;13.44;77.72;97079.72;105933;1251;73175;-26
2023/11/05 09:10:45;;;;;;;4.30;3.10;;;;;;;13.34;77.34;97084.73;105965;1251;61001;-26
2023/11/05 09:13:13;;;;;;;6.00;2.50;;;;;;;13.13;77.63;97088.45;105935;1253;61156;-26
2023/11/05 09:15:40;;;;;;;3.20;2.20;;;;;;;13.37;76.16;97082.99;105939;1251;73661;-26
2023/11/05 09:18:07;;;;;;;3.80;2.50;;;;;;;14.04;74.20;97072.52;105921;1256;74259;-27
2023/11/05 09:20:34;;;;;;;5.50;3.40;;;;;;;14.30;71.03;97068.15;105785;1251;72933;-26
2023/11/05 09:23:01;;;;;;;5.20;3.00;;;;;;;14.18;71.34;97070.80;105875;1251;61079;-26
2023/11/05 09:25:28;;;;;;;4.60;3.00;;;;;;;13.91;72.31;97072.45;105840;1251;61180;-26
2023/11/05 09:27:56;;;;;;;7.40;3.20;;;;;;;13.62;72.32;97067.89;105952;1251;74072;-26
2023/11/05 09:30:23;;;;;;;4.50;3.20;;;;;;;13.41;73.52;97067.75;105953;1251;74848;-27
2023/11/05 09:32:50;;;;;;;10.00;3.50;;;;;;;13.25;74.40;97065.73;105915;1256;72669;-26
2023/11/05 09:35:17;;;;;;;4.50;2.80;;;;;;;13.10;74.23;97069.05;105744;1254;61074;-26
2023/11/05 09:37:44;;;;;;;4.90;3.00;;;;;;;13.16;75.11;97060.38;105765;1256;61060;-26
2023/11/05 09:40:14;;;;;;;3.90;2.40;;;;;;;13.41;75.94;97060.79;105800;1251;73685;-26
2023/11/05 09:43:05;;;;;;;4.10;2.50;;;;;;;14.20;74.35;97060.86;105943;1255;73341;-26
2023/11/05 09:45:33;;;;;;;4.20;2.50;;;;;;;15.06;70.53;97055.26;105865;1251;72775;-26
2023/11/05 09:48:02;;;;;;;5.30;3.40;;;;;;;15.38;67.76;97049.86;105990;1251;61170;-26
2023/11/05 09:50:29;;;;;;;6.70;3.70;;;;;;;15.48;66.17;97039.83;105899;1256;61146;-26
2023/11/05 09:53:14;;;;;;;6.30;3.80;;;;;;;15.41;66.26;97041.39;105999;1251;74085;-26
2023/11/05 09:55:41;;;;;;;6.20;3.40;;;;;;;15.58;66.25;97038.27;105758;1257;74049;-26
2023/11/05 09:58:09;;;;;;;7.70;3.80;;;;;;;15.61;65.12;97031.04;105821;1257;72721;-25
2023/11/05 10:00:37;;;;;;;5.60;3.60;;;;;;;15.48;64.77;97033.73;105655;1251;61134;-25
2023/11/05 10:03:11;;;;;;;5.60;3.30;;;;;;;15.51;65.68;97033.08;105744;1251;61102;-25
2023/11/05 10:05:44;;;;;;;4.80;3.60;;;;;;;15.09;65.02;97029.73;105802;1257;73642;-25
2023/11/05 10:08:11;;;;;;;;;;;;;;;14.89;67.00;97031.65;105881;1257;74240;-25
2023/11/05 10:10:40;;;;;;;5.40;3.60;;;;;;;14.71;67.34;97030.66;105928;1251;72588;-25
2023/11/05 10:13:07;;;;;;;5.30;3.10;;;;;;;14.57;68.05;97025.89;105871;1251;61151;-25
2023/11/05 10:15:34;;;;;;;5.60;3.00;;;;;;;14.26;67.64;97033.65;105949;1253;61068;-25
2023/11/05 10:18:02;;;;;;;3.80;2.50;;;;;;;13.96;68.10;97027.10;105876;1251;74004;-25
2023/11/05 10:20:32;;;;;;;2.80;2.00;;;;;;;13.81;68.00;97022.45;105721;1259;74774;-25
2023/11/05 10:23:06;;;;;;;4.30;2.40;;;;;;;14.00;69.05;97018.58;105813;1254;72718;-25
2023/11/05 10:25:36;;;;;;;4.60;3.00;;;;;;;14.37;68.74;97008.70;105728;1251;61031;-25
2023/11/05 10:28:04;;;;;;;4.40;3.20;;;;;;;14.58;67.61;97009.20;105953;1252;61112;-25
2023/11/05 10:30:32;;;;;;;4.00;2.40;;;;;;;14.75;66.82;97005.48;105956;1251;73794;-25
2023/11/05 10:33:00;;;;;;;5.90;3.00;;;;;;;14.95;65.70;96998.76;105955;1256;74325;-25
2023/11/05 10:35:32;;;;;;;3.70;2.40;;;;;;;15.02;65.49;96995.88;105925;1251;72586;-25
2023/11/05 10:37:59;;;;;;;4.80;2.90;;;;;;;14.99;64.45;96989.11;105787;1251;61157;-25
2023/11/05 10:40:26;;;;;;;6.50;2.70;;;;;;;14.88;66.34;96985.30;105921;1256;61789;-25
2023/11/05 10:42:53;;;;;;;4.80;2.60;;;;;;;15.11;65.55;96989.65;103618;1251;3280714;-24
2023/11/05 10:45:22;;;;;;;3.70;2.00;;;;;;;15.34;63.79;96982.07;105684;1251;74262;-25
2023/11/05 10:47:52;;;;;;;3.40;2.10;;;;;;;15.43;61.98;96979.05;105754;1251;73173;-25
2023/11/05 10:50:24;;;;;;;4.40;2.70;;;;;;;15.56;62.20;96974.52;105914;1251;61217;-26
2023/11/05 10:52:53;;;;;;;8.90;2.50;;;;;;;15.70;61.72;96976.99;105865;1251;61969;-25
2023/11/05 10:55:37;;;;;;;4.20;2.60;;;;;;;15.95;61.36;96968.79;105791;1251;73689;-25
2023/11/05 10:58:08;;;;;;;3.80;2.40;;;;;;;15.88;61.67;96968.30;105808;1254;74360;-25
2023/11/05 11:00:49;;;;;;;4.40;2.00;;;;;;;15.87;61.15;96967.45;105792;1253;72523;-26
2023/11/05 11:03:18;;;;;;;3.20;1.90;;;;;;;15.86;57.39;96965.80;105890;1251;60984;-25
2023/11/05 11:05:46;;;;;;;4.10;2.00;;;;;;;15.63;56.30;96967.98;105558;1252;61136;-25
2023/11/05 11:08:21;;;;;;;2.40;1.70;;;;;;;15.54;56.62;96973.55;105627;1251;73937;-27
2023/11/05 11:10:49;;;;;;;4.10;2.20;;;;;;;15.59;57.14;96965.06;105679;1251;72877;-25
2023/11/05 11:13:17;;;;;;;3.80;2.20;;;;;;;15.76;58.10;96971.73;105823;1251;70592;-25
2023/11/05 11:15:46;;;;;;;2.50;1.70;;;;;;;16.00;58.52;96967.98;105772;1251;61148;-25
2023/11/05 11:18:19;;;;;;;5.30;1.80;;;;;;;16.09;57.42;96959.22;105919;1257;61164;-25
2023/11/05 11:20:47;;;;;;;2.60;1.60;;;;;;;15.90;56.10;96949.95;105822;1257;72299;-25
2023/11/05 11:23:15;;;;;;;3.50;1.80;;;;;;;15.59;54.79;96940.77;105813;1257;74138;-25
2023/11/05 11:25:58;;;;;;;2.60;1.50;;;;;;;15.31;54.74;96940.20;105950;1251;72633;-25
2023/11/05 11:28:29;;;;;;;2.80;1.50;;;;;;;15.22;55.11;96947.86;105946;1251;61182;-25
2023/11/05 11:30:56;;;;;;;2.60;1.20;;;;;;;15.12;54.78;96947.95;105623;1251;61459;-26